sensor_id;sensor_type;location;lat;lon;timestamp;P1;durP1;ratioP1;P2;durP2;ratioP2
17935;SDS011;9093;52.062;4.508;2023-02-04T00:00:23;12.30;;;2.08;;
17935;SDS011;9093;52.062;4.508;2023-02-04T00:03:03;15.00;;;1.50;;
17935;SDS011;9093;52.062;4.508;2023-02-04T00:05:43;6.30;;;1.10;;
17935;SDS011;9093;52.062;4.508;2023-02-04T00:08:24;12.85;;;1.88;;
17935;SDS011;9093;52.062;4.508;2023-02-04T00:11:04;13.55;;;2.10;;
17935;SDS011;9093;52.062;4.508;2023-02-04T00:13:44;14.73;;;2.55;;
17935;SDS011;9093;52.062;4.508;2023-02-04T00:16:25;10.82;;;1.80;;
17935;SDS011;9093;52.062;4.508;2023-02-04T00:19:05;13.13;;;1.80;;
17935;SDS011;9093;52.062;4.508;2023-02-04T00:21:45;22.67;;;2.10;;
17935;SDS011;9093;52.062;4.508;2023-02-04T00:24:26;12.13;;;1.52;;
17935;SDS011;9093;52.062;4.508;2023-02-04T00:27:06;5.07;;;1.75;;
17935;SDS011;9093;52.062;4.508;2023-02-04T00:29:46;6.95;;;1.70;;
17935;SDS011;9093;52.062;4.508;2023-02-04T00:32:26;17.13;;;2.22;;
17935;SDS011;9093;52.062;4.508;2023-02-04T00:35:07;12.85;;;1.75;;
17935;SDS011;9093;52.062;4.508;2023-02-04T00:37:48;15.65;;;2.55;;
17935;SDS011;9093;52.062;4.508;2023-02-04T00:40:29;11.13;;;1.88;;
17935;SDS011;9093;52.062;4.508;2023-02-04T00:43:09;10.48;;;1.70;;
17935;SDS011;9093;52.062;4.508;2023-02-04T00:45:49;11.02;;;2.42;;
17935;SDS011;9093;52.062;4.508;2023-02-04T00:48:29;9.20;;;2.00;;
17935;SDS011;9093;52.062;4.508;2023-02-04T00:51:10;3.95;;;1.63;;
17935;SDS011;9093;52.062;4.508;2023-02-04T00:53:50;16.63;;;2.20;;
17935;SDS011;9093;52.062;4.508;2023-02-04T00:56:30;8.73;;;2.00;;
17935;SDS011;9093;52.062;4.508;2023-02-04T00:59:11;7.28;;;2.03;;
17935;SDS011;9093;52.062;4.508;2023-02-04T01:01:51;7.38;;;1.58;;
17935;SDS011;9093;52.062;4.508;2023-02-04T01:04:32;9.55;;;1.48;;
17935;SDS011;9093;52.062;4.508;2023-02-04T01:07:12;6.97;;;2.13;;
17935;SDS011;9093;52.062;4.508;2023-02-04T01:09:52;12.65;;;2.25;;
17935;SDS011;9093;52.062;4.508;2023-02-04T01:12:33;16.80;;;2.47;;
17935;SDS011;9093;52.062;4.508;2023-02-04T01:15:13;7.78;;;2.10;;
17935;SDS011;9093;52.062;4.508;2023-02-04T01:17:53;11.70;;;1.95;;
17935;SDS011;9093;52.062;4.508;2023-02-04T01:20:34;7.63;;;2.00;;
17935;SDS011;9093;52.062;4.508;2023-02-04T01:23:14;7.60;;;2.20;;
17935;SDS011;9093;52.062;4.508;2023-02-04T01:25:54;11.85;;;1.70;;
17935;SDS011;9093;52.062;4.508;2023-02-04T01:28:35;10.88;;;2.47;;
17935;SDS011;9093;52.062;4.508;2023-02-04T01:31:16;6.68;;;1.45;;
17935;SDS011;9093;52.062;4.508;2023-02-04T01:33:57;14.10;;;2.17;;
17935;SDS011;9093;52.062;4.508;2023-02-04T01:36:37;5.47;;;1.40;;
17935;SDS011;9093;52.062;4.508;2023-02-04T01:39:18;11.80;;;2.17;;
17935;SDS011;9093;52.062;4.508;2023-02-04T01:41:58;14.75;;;2.30;;
17935;SDS011;9093;52.062;4.508;2023-02-04T01:44:39;6.78;;;1.70;;
17935;SDS011;9093;52.062;4.508;2023-02-04T01:47:20;6.65;;;1.13;;
17935;SDS011;9093;52.062;4.508;2023-02-04T01:50:01;8.50;;;1.80;;
17935;SDS011;9093;52.062;4.508;2023-02-04T01:52:41;7.32;;;1.80;;
17935;SDS011;9093;52.062;4.508;2023-02-04T01:55:29;9.18;;;2.17;;
17935;SDS011;9093;52.062;4.508;2023-02-04T01:58:11;11.80;;;1.88;;
17935;SDS011;9093;52.062;4.508;2023-02-04T02:00:52;15.35;;;2.20;;
17935;SDS011;9093;52.062;4.508;2023-02-04T02:03:32;11.05;;;1.73;;
17935;SDS011;9093;52.062;4.508;2023-02-04T02:06:12;22.25;;;3.38;;
17935;SDS011;9093;52.062;4.508;2023-02-04T02:08:53;9.48;;;1.58;;
17935;SDS011;9093;52.062;4.508;2023-02-04T02:11:33;16.17;;;2.22;;
17935;SDS011;9093;52.062;4.508;2023-02-04T02:14:14;6.65;;;2.17;;
17935;SDS011;9093;52.062;4.508;2023-02-04T02:16:54;6.03;;;1.80;;
17935;SDS011;9093;52.062;4.508;2023-02-04T02:19:35;16.02;;;2.00;;
17935;SDS011;9093;52.062;4.508;2023-02-04T02:25:08;7.45;;;1.67;;
17935;SDS011;9093;52.062;4.508;2023-02-04T02:27:50;5.30;;;1.70;;
17935;SDS011;9093;52.062;4.508;2023-02-04T02:30:31;8.30;;;1.90;;
17935;SDS011;9093;52.062;4.508;2023-02-04T02:33:11;6.90;;;1.35;;
17935;SDS011;9093;52.062;4.508;2023-02-04T02:35:56;18.83;;;2.65;;
17935;SDS011;9093;52.062;4.508;2023-02-04T02:38:36;8.65;;;2.45;;
17935;SDS011;9093;52.062;4.508;2023-02-04T02:41:17;5.00;;;1.30;;
17935;SDS011;9093;52.062;4.508;2023-02-04T02:43:58;11.23;;;2.13;;
17935;SDS011;9093;52.062;4.508;2023-02-04T02:46:38;10.93;;;1.90;;
17935;SDS011;9093;52.062;4.508;2023-02-04T02:49:19;10.95;;;1.45;;
17935;SDS011;9093;52.062;4.508;2023-02-04T02:52:00;14.93;;;1.77;;
17935;SDS011;9093;52.062;4.508;2023-02-04T02:54:40;20.35;;;1.75;;
17935;SDS011;9093;52.062;4.508;2023-02-04T02:57:21;15.00;;;2.10;;
17935;SDS011;9093;52.062;4.508;2023-02-04T03:00:08;12.40;;;1.90;;
17935;SDS011;9093;52.062;4.508;2023-02-04T03:03:07;7.55;;;1.42;;
17935;SDS011;9093;52.062;4.508;2023-02-04T03:05:53;21.25;;;2.08;;
17935;SDS011;9093;52.062;4.508;2023-02-04T03:08:36;12.20;;;1.92;;
17935;SDS011;9093;52.062;4.508;2023-02-04T03:11:17;3.85;;;1.05;;
17935;SDS011;9093;52.062;4.508;2023-02-04T03:13:58;19.70;;;2.85;;
17935;SDS011;9093;52.062;4.508;2023-02-04T03:16:42;8.07;;;1.95;;
17935;SDS011;9093;52.062;4.508;2023-02-04T03:19:23;13.00;;;1.40;;
17935;SDS011;9093;52.062;4.508;2023-02-04T03:22:05;10.60;;;2.00;;
17935;SDS011;9093;52.062;4.508;2023-02-04T03:24:46;3.75;;;1.10;;
17935;SDS011;9093;52.062;4.508;2023-02-04T03:27:27;7.40;;;1.55;;
17935;SDS011;9093;52.062;4.508;2023-02-04T03:30:08;16.02;;;1.73;;
17935;SDS011;9093;52.062;4.508;2023-02-04T03:32:49;14.95;;;1.60;;
17935;SDS011;9093;52.062;4.508;2023-02-04T03:35:29;8.27;;;1.70;;
17935;SDS011;9093;52.062;4.508;2023-02-04T03:38:09;5.20;;;1.52;;
17935;SDS011;9093;52.062;4.508;2023-02-04T03:40:50;21.38;;;1.67;;
17935;SDS011;9093;52.062;4.508;2023-02-04T03:43:30;20.30;;;2.35;;
17935;SDS011;9093;52.062;4.508;2023-02-04T03:46:10;12.95;;;1.65;;
17935;SDS011;9093;52.062;4.508;2023-02-04T03:48:50;7.95;;;1.42;;
17935;SDS011;9093;52.062;4.508;2023-02-04T03:51:31;6.15;;;1.48;;
17935;SDS011;9093;52.062;4.508;2023-02-04T03:54:11;5.55;;;1.55;;
17935;SDS011;9093;52.062;4.508;2023-02-04T03:56:51;10.10;;;1.67;;
17935;SDS011;9093;52.062;4.508;2023-02-04T03:59:32;19.95;;;2.35;;
17935;SDS011;9093;52.062;4.508;2023-02-04T04:02:12;11.10;;;1.58;;
17935;SDS011;9093;52.062;4.508;2023-02-04T04:04:52;7.85;;;1.60;;
17935;SDS011;9093;52.062;4.508;2023-02-04T04:07:33;9.57;;;1.55;;
17935;SDS011;9093;52.062;4.508;2023-02-04T04:10:13;10.25;;;1.38;;
17935;SDS011;9093;52.062;4.508;2023-02-04T04:12:54;7.93;;;1.38;;
17935;SDS011;9093;52.062;4.508;2023-02-04T04:15:34;5.38;;;1.35;;
17935;SDS011;9093;52.062;4.508;2023-02-04T04:18:15;5.97;;;1.60;;
17935;SDS011;9093;52.062;4.508;2023-02-04T04:20:55;6.25;;;1.35;;
17935;SDS011;9093;52.062;4.508;2023-02-04T04:23:36;8.07;;;1.88;;
17935;SDS011;9093;52.062;4.508;2023-02-04T04:26:16;6.82;;;1.83;;
17935;SDS011;9093;52.062;4.508;2023-02-04T04:28:57;7.72;;;1.42;;
17935;SDS011;9093;52.062;4.508;2023-02-04T04:31:37;12.07;;;1.33;;
17935;SDS011;9093;52.062;4.508;2023-02-04T04:34:18;10.68;;;1.98;;
17935;SDS011;9093;52.062;4.508;2023-02-04T04:36:58;10.85;;;2.67;;
17935;SDS011;9093;52.062;4.508;2023-02-04T04:39:38;20.42;;;1.48;;
17935;SDS011;9093;52.062;4.508;2023-02-04T04:42:19;13.90;;;1.40;;
17935;SDS011;9093;52.062;4.508;2023-02-04T04:44:59;10.30;;;1.00;;
17935;SDS011;9093;52.062;4.508;2023-02-04T04:47:39;15.65;;;1.92;;
17935;SDS011;9093;52.062;4.508;2023-02-04T04:50:20;5.57;;;1.33;;
17935;SDS011;9093;52.062;4.508;2023-02-04T04:53:00;4.03;;;1.15;;
17935;SDS011;9093;52.062;4.508;2023-02-04T04:55:40;16.88;;;1.83;;
17935;SDS011;9093;52.062;4.508;2023-02-04T04:58:21;9.80;;;1.58;;
17935;SDS011;9093;52.062;4.508;2023-02-04T05:01:01;11.82;;;1.52;;
17935;SDS011;9093;52.062;4.508;2023-02-04T05:03:41;3.97;;;1.23;;
17935;SDS011;9093;52.062;4.508;2023-02-04T05:06:22;5.22;;;1.48;;
17935;SDS011;9093;52.062;4.508;2023-02-04T05:09:04;10.45;;;1.88;;
17935;SDS011;9093;52.062;4.508;2023-02-04T05:11:44;13.10;;;2.33;;
17935;SDS011;9093;52.062;4.508;2023-02-04T05:14:25;8.05;;;1.52;;
17935;SDS011;9093;52.062;4.508;2023-02-04T05:17:06;24.08;;;2.42;;
17935;SDS011;9093;52.062;4.508;2023-02-04T05:19:46;15.23;;;2.15;;
17935;SDS011;9093;52.062;4.508;2023-02-04T05:22:26;5.07;;;1.30;;
17935;SDS011;9093;52.062;4.508;2023-02-04T05:25:07;4.38;;;1.50;;
17935;SDS011;9093;52.062;4.508;2023-02-04T05:27:47;24.65;;;2.45;;
17935;SDS011;9093;52.062;4.508;2023-02-04T05:30:28;11.45;;;1.92;;
17935;SDS011;9093;52.062;4.508;2023-02-04T05:33:08;13.32;;;2.30;;
17935;SDS011;9093;52.062;4.508;2023-02-04T05:35:48;14.43;;;1.40;;
17935;SDS011;9093;52.062;4.508;2023-02-04T05:38:29;10.65;;;1.65;;
17935;SDS011;9093;52.062;4.508;2023-02-04T05:41:09;11.95;;;1.73;;
17935;SDS011;9093;52.062;4.508;2023-02-04T05:43:49;15.50;;;1.45;;
17935;SDS011;9093;52.062;4.508;2023-02-04T05:46:30;10.23;;;2.53;;
17935;SDS011;9093;52.062;4.508;2023-02-04T05:49:10;5.85;;;1.15;;
17935;SDS011;9093;52.062;4.508;2023-02-04T05:51:50;8.13;;;1.52;;
17935;SDS011;9093;52.062;4.508;2023-02-04T05:54:31;18.40;;;1.50;;
17935;SDS011;9093;52.062;4.508;2023-02-04T05:57:11;8.60;;;1.40;;
17935;SDS011;9093;52.062;4.508;2023-02-04T05:59:51;10.48;;;1.90;;
17935;SDS011;9093;52.062;4.508;2023-02-04T06:02:32;6.53;;;1.35;;
17935;SDS011;9093;52.062;4.508;2023-02-04T06:05:12;8.38;;;1.58;;
17935;SDS011;9093;52.062;4.508;2023-02-04T06:07:52;7.88;;;1.58;;
17935;SDS011;9093;52.062;4.508;2023-02-04T06:10:33;8.98;;;1.80;;
17935;SDS011;9093;52.062;4.508;2023-02-04T06:13:13;10.85;;;2.00;;
17935;SDS011;9093;52.062;4.508;2023-02-04T06:15:54;9.95;;;2.30;;
17935;SDS011;9093;52.062;4.508;2023-02-04T06:18:34;9.18;;;1.75;;
17935;SDS011;9093;52.062;4.508;2023-02-04T06:21:14;10.82;;;1.88;;
17935;SDS011;9093;52.062;4.508;2023-02-04T06:23:55;9.65;;;2.38;;
17935;SDS011;9093;52.062;4.508;2023-02-04T06:26:35;26.42;;;2.60;;
17935;SDS011;9093;52.062;4.508;2023-02-04T06:29:15;7.40;;;2.85;;
17935;SDS011;9093;52.062;4.508;2023-02-04T06:31:55;7.93;;;1.75;;
17935;SDS011;9093;52.062;4.508;2023-02-04T06:34:36;5.15;;;1.20;;
17935;SDS011;9093;52.062;4.508;2023-02-04T06:37:16;12.57;;;2.08;;
17935;SDS011;9093;52.062;4.508;2023-02-04T06:39:56;7.70;;;1.90;;
17935;SDS011;9093;52.062;4.508;2023-02-04T06:42:37;13.63;;;2.35;;
17935;SDS011;9093;52.062;4.508;2023-02-04T06:45:17;6.60;;;1.60;;
17935;SDS011;9093;52.062;4.508;2023-02-04T06:47:57;7.45;;;1.85;;
17935;SDS011;9093;52.062;4.508;2023-02-04T06:50:38;11.60;;;1.95;;
17935;SDS011;9093;52.062;4.508;2023-02-04T06:53:18;29.45;;;2.83;;
17935;SDS011;9093;52.062;4.508;2023-02-04T06:55:58;7.68;;;1.65;;
17935;SDS011;9093;52.062;4.508;2023-02-04T06:58:39;14.40;;;2.47;;
17935;SDS011;9093;52.062;4.508;2023-02-04T07:01:19;12.32;;;2.45;;
17935;SDS011;9093;52.062;4.508;2023-02-04T07:03:59;20.70;;;2.67;;
17935;SDS011;9093;52.062;4.508;2023-02-04T07:06:40;12.07;;;2.30;;
17935;SDS011;9093;52.062;4.508;2023-02-04T07:09:21;3.60;;;1.52;;
17935;SDS011;9093;52.062;4.508;2023-02-04T07:12:01;4.80;;;1.60;;
17935;SDS011;9093;52.062;4.508;2023-02-04T07:14:41;7.03;;;1.52;;
17935;SDS011;9093;52.062;4.508;2023-02-04T07:17:22;19.50;;;2.83;;
17935;SDS011;9093;52.062;4.508;2023-02-04T07:20:02;11.60;;;2.50;;
17935;SDS011;9093;52.062;4.508;2023-02-04T07:22:43;16.95;;;2.30;;
17935;SDS011;9093;52.062;4.508;2023-02-04T07:25:23;9.15;;;1.58;;
17935;SDS011;9093;52.062;4.508;2023-02-04T07:28:04;13.13;;;2.53;;
17935;SDS011;9093;52.062;4.508;2023-02-04T07:30:45;8.55;;;1.98;;
17935;SDS011;9093;52.062;4.508;2023-02-04T07:33:25;7.78;;;1.65;;
17935;SDS011;9093;52.062;4.508;2023-02-04T07:36:05;14.02;;;2.08;;
17935;SDS011;9093;52.062;4.508;2023-02-04T07:38:46;6.07;;;2.13;;
17935;SDS011;9093;52.062;4.508;2023-02-04T07:41:26;9.27;;;2.38;;
17935;SDS011;9093;52.062;4.508;2023-02-04T07:44:06;16.20;;;3.03;;
17935;SDS011;9093;52.062;4.508;2023-02-04T07:46:47;14.38;;;2.70;;
17935;SDS011;9093;52.062;4.508;2023-02-04T07:49:27;24.90;;;2.65;;
17935;SDS011;9093;52.062;4.508;2023-02-04T07:52:08;19.77;;;2.80;;
17935;SDS011;9093;52.062;4.508;2023-02-04T07:54:48;11.73;;;3.28;;
17935;SDS011;9093;52.062;4.508;2023-02-04T07:57:29;11.95;;;2.63;;
17935;SDS011;9093;52.062;4.508;2023-02-04T08:00:10;21.70;;;3.80;;
17935;SDS011;9093;52.062;4.508;2023-02-04T08:05:33;4.47;;;2.13;;
17935;SDS011;9093;52.062;4.508;2023-02-04T08:08:13;20.23;;;3.17;;
17935;SDS011;9093;52.062;4.508;2023-02-04T08:10:54;10.25;;;2.83;;
17935;SDS011;9093;52.062;4.508;2023-02-04T08:13:34;11.15;;;2.75;;
17935;SDS011;9093;52.062;4.508;2023-02-04T08:16:14;14.23;;;3.03;;
17935;SDS011;9093;52.062;4.508;2023-02-04T08:18:55;14.98;;;3.55;;
17935;SDS011;9093;52.062;4.508;2023-02-04T08:21:35;10.43;;;2.30;;
17935;SDS011;9093;52.062;4.508;2023-02-04T08:24:16;13.55;;;2.95;;
17935;SDS011;9093;52.062;4.508;2023-02-04T08:26:56;18.70;;;4.10;;
17935;SDS011;9093;52.062;4.508;2023-02-04T08:29:38;20.35;;;3.13;;
17935;SDS011;9093;52.062;4.508;2023-02-04T08:32:19;20.15;;;3.28;;
17935;SDS011;9093;52.062;4.508;2023-02-04T08:34:59;19.10;;;3.22;;
17935;SDS011;9093;52.062;4.508;2023-02-04T08:37:40;21.63;;;4.70;;
17935;SDS011;9093;52.062;4.508;2023-02-04T08:40:20;8.00;;;2.35;;
17935;SDS011;9093;52.062;4.508;2023-02-04T08:43:01;20.73;;;3.33;;
17935;SDS011;9093;52.062;4.508;2023-02-04T08:45:41;21.63;;;3.40;;
17935;SDS011;9093;52.062;4.508;2023-02-04T08:48:21;11.43;;;2.47;;
17935;SDS011;9093;52.062;4.508;2023-02-04T08:51:02;8.07;;;2.50;;
17935;SDS011;9093;52.062;4.508;2023-02-04T08:53:42;12.98;;;3.28;;
17935;SDS011;9093;52.062;4.508;2023-02-04T08:56:22;20.33;;;4.00;;
17935;SDS011;9093;52.062;4.508;2023-02-04T08:59:03;22.30;;;3.30;;
17935;SDS011;9093;52.062;4.508;2023-02-04T09:01:43;15.85;;;4.05;;
17935;SDS011;9093;52.062;4.508;2023-02-04T09:04:28;20.08;;;3.53;;
17935;SDS011;9093;52.062;4.508;2023-02-04T09:07:08;8.57;;;2.35;;
17935;SDS011;9093;52.062;4.508;2023-02-04T09:09:48;14.27;;;2.65;;
17935;SDS011;9093;52.062;4.508;2023-02-04T09:12:29;29.45;;;4.07;;
17935;SDS011;9093;52.062;4.508;2023-02-04T09:15:09;25.38;;;3.35;;
17935;SDS011;9093;52.062;4.508;2023-02-04T09:17:51;27.38;;;3.45;;
17935;SDS011;9093;52.062;4.508;2023-02-04T09:20:40;13.02;;;2.88;;
17935;SDS011;9093;52.062;4.508;2023-02-04T09:23:21;17.35;;;3.58;;
17935;SDS011;9093;52.062;4.508;2023-02-04T09:26:02;17.48;;;3.38;;
17935;SDS011;9093;52.062;4.508;2023-02-04T09:28:45;9.95;;;3.03;;
17935;SDS011;9093;52.062;4.508;2023-02-04T09:31:26;16.60;;;3.78;;
17935;SDS011;9093;52.062;4.508;2023-02-04T09:34:07;12.25;;;3.58;;
17935;SDS011;9093;52.062;4.508;2023-02-04T09:36:47;11.63;;;3.17;;
17935;SDS011;9093;52.062;4.508;2023-02-04T09:39:27;9.50;;;2.85;;
17935;SDS011;9093;52.062;4.508;2023-02-04T09:42:09;12.50;;;3.03;;
17935;SDS011;9093;52.062;4.508;2023-02-04T09:44:53;11.43;;;3.00;;
17935;SDS011;9093;52.062;4.508;2023-02-04T09:47:34;12.98;;;3.17;;
17935;SDS011;9093;52.062;4.508;2023-02-04T09:50:16;15.40;;;2.90;;
17935;SDS011;9093;52.062;4.508;2023-02-04T09:52:59;10.73;;;2.03;;
17935;SDS011;9093;52.062;4.508;2023-02-04T09:55:43;15.55;;;2.35;;
17935;SDS011;9093;52.062;4.508;2023-02-04T09:58:26;5.50;;;2.22;;
17935;SDS011;9093;52.062;4.508;2023-02-04T10:01:14;16.95;;;2.95;;
17935;SDS011;9093;52.062;4.508;2023-02-04T10:03:57;18.88;;;3.38;;
17935;SDS011;9093;52.062;4.508;2023-02-04T10:06:41;15.07;;;2.83;;
17935;SDS011;9093;52.062;4.508;2023-02-04T10:09:23;13.25;;;2.67;;
17935;SDS011;9093;52.062;4.508;2023-02-04T10:12:03;14.15;;;3.22;;
17935;SDS011;9093;52.062;4.508;2023-02-04T10:14:45;12.73;;;3.67;;
17935;SDS011;9093;52.062;4.508;2023-02-04T10:17:26;12.73;;;2.95;;
17935;SDS011;9093;52.062;4.508;2023-02-04T10:20:19;7.90;;;2.10;;
17935;SDS011;9093;52.062;4.508;2023-02-04T10:23:01;9.30;;;2.35;;
17935;SDS011;9093;52.062;4.508;2023-02-04T10:25:42;15.95;;;3.28;;
17935;SDS011;9093;52.062;4.508;2023-02-04T10:28:31;11.38;;;2.22;;
17935;SDS011;9093;52.062;4.508;2023-02-04T10:31:32;14.20;;;2.33;;
17935;SDS011;9093;52.062;4.508;2023-02-04T10:36:56;5.22;;;1.45;;
17935;SDS011;9093;52.062;4.508;2023-02-04T10:39:40;12.25;;;1.70;;
17935;SDS011;9093;52.062;4.508;2023-02-04T10:42:25;18.02;;;1.90;;
17935;SDS011;9093;52.062;4.508;2023-02-04T10:45:26;13.95;;;1.90;;
17935;SDS011;9093;52.062;4.508;2023-02-04T10:48:13;4.43;;;1.30;;
17935;SDS011;9093;52.062;4.508;2023-02-04T10:50:55;13.82;;;1.92;;
17935;SDS011;9093;52.062;4.508;2023-02-04T10:53:37;11.57;;;1.80;;
17935;SDS011;9093;52.062;4.508;2023-02-04T10:56:36;6.78;;;2.22;;
17935;SDS011;9093;52.062;4.508;2023-02-04T10:59:21;7.68;;;1.67;;
17935;SDS011;9093;52.062;4.508;2023-02-04T11:05:11;14.40;;;2.50;;
17935;SDS011;9093;52.062;4.508;2023-02-04T11:07:56;12.95;;;2.38;;
17935;SDS011;9093;52.062;4.508;2023-02-04T11:10:37;11.98;;;1.67;;
17935;SDS011;9093;52.062;4.508;2023-02-04T11:13:22;7.35;;;2.13;;
17935;SDS011;9093;52.062;4.508;2023-02-04T11:16:25;7.75;;;1.50;;
17935;SDS011;9093;52.062;4.508;2023-02-04T11:19:11;12.02;;;1.98;;
17935;SDS011;9093;52.062;4.508;2023-02-04T11:21:53;13.15;;;2.10;;
17935;SDS011;9093;52.062;4.508;2023-02-04T11:24:45;7.55;;;2.15;;
17935;SDS011;9093;52.062;4.508;2023-02-04T11:27:36;19.02;;;2.08;;
17935;SDS011;9093;52.062;4.508;2023-02-04T11:30:19;12.35;;;1.83;;
17935;SDS011;9093;52.062;4.508;2023-02-04T11:33:02;16.95;;;4.43;;
17935;SDS011;9093;52.062;4.508;2023-02-04T11:35:55;4.88;;;1.95;;
17935;SDS011;9093;52.062;4.508;2023-02-04T11:38:49;7.22;;;1.95;;
17935;SDS011;9093;52.062;4.508;2023-02-04T11:41:30;7.85;;;1.90;;
17935;SDS011;9093;52.062;4.508;2023-02-04T11:44:12;9.47;;;1.77;;
17935;SDS011;9093;52.062;4.508;2023-02-04T11:46:55;3.20;;;1.02;;
17935;SDS011;9093;52.062;4.508;2023-02-04T11:49:36;6.88;;;1.58;;
17935;SDS011;9093;52.062;4.508;2023-02-04T11:52:16;13.20;;;2.00;;
17935;SDS011;9093;52.062;4.508;2023-02-04T11:54:57;4.85;;;1.27;;
17935;SDS011;9093;52.062;4.508;2023-02-04T11:57:39;15.10;;;1.90;;
17935;SDS011;9093;52.062;4.508;2023-02-04T12:00:26;7.88;;;1.58;;
17935;SDS011;9093;52.062;4.508;2023-02-04T12:06:27;14.02;;;1.77;;
17935;SDS011;9093;52.062;4.508;2023-02-04T12:14:36;11.63;;;1.77;;
17935;SDS011;9093;52.062;4.508;2023-02-04T12:17:18;9.93;;;1.88;;
17935;SDS011;9093;52.062;4.508;2023-02-04T12:19:59;4.65;;;1.40;;
17935;SDS011;9093;52.062;4.508;2023-02-04T12:22:39;8.88;;;1.38;;
17935;SDS011;9093;52.062;4.508;2023-02-04T12:25:20;7.55;;;1.30;;
17935;SDS011;9093;52.062;4.508;2023-02-04T12:28:00;9.57;;;1.52;;
17935;SDS011;9093;52.062;4.508;2023-02-04T12:30:41;4.70;;;1.10;;
17935;SDS011;9093;52.062;4.508;2023-02-04T12:33:21;6.10;;;1.98;;
17935;SDS011;9093;52.062;4.508;2023-02-04T12:36:02;5.68;;;1.52;;
17935;SDS011;9093;52.062;4.508;2023-02-04T12:38:43;6.95;;;1.75;;
17935;SDS011;9093;52.062;4.508;2023-02-04T12:41:24;10.10;;;1.92;;
17935;SDS011;9093;52.062;4.508;2023-02-04T12:44:04;13.30;;;2.22;;
17935;SDS011;9093;52.062;4.508;2023-02-04T12:46:45;9.70;;;1.30;;
17935;SDS011;9093;52.062;4.508;2023-02-04T12:49:25;7.82;;;1.83;;
17935;SDS011;9093;52.062;4.508;2023-02-04T12:52:05;4.53;;;1.35;;
17935;SDS011;9093;52.062;4.508;2023-02-04T12:54:46;11.95;;;1.83;;
17935;SDS011;9093;52.062;4.508;2023-02-04T12:57:26;12.40;;;2.00;;
17935;SDS011;9093;52.062;4.508;2023-02-04T13:00:06;7.82;;;1.63;;
17935;SDS011;9093;52.062;4.508;2023-02-04T13:02:48;11.75;;;2.38;;
17935;SDS011;9093;52.062;4.508;2023-02-04T13:05:28;14.18;;;2.22;;
17935;SDS011;9093;52.062;4.508;2023-02-04T13:08:08;5.10;;;1.20;;
17935;SDS011;9093;52.062;4.508;2023-02-04T13:10:49;7.07;;;1.95;;
17935;SDS011;9093;52.062;4.508;2023-02-04T13:13:30;16.20;;;2.10;;
17935;SDS011;9093;52.062;4.508;2023-02-04T13:16:11;3.70;;;1.63;;
17935;SDS011;9093;52.062;4.508;2023-02-04T13:18:51;12.13;;;2.42;;
17935;SDS011;9093;52.062;4.508;2023-02-04T13:21:31;7.28;;;2.22;;
17935;SDS011;9093;52.062;4.508;2023-02-04T13:24:12;16.02;;;3.63;;
17935;SDS011;9093;52.062;4.508;2023-02-04T13:26:52;11.82;;;4.30;;
17935;SDS011;9093;52.062;4.508;2023-02-04T13:29:32;9.93;;;3.90;;
17935;SDS011;9093;52.062;4.508;2023-02-04T13:32:13;23.55;;;4.32;;
17935;SDS011;9093;52.062;4.508;2023-02-04T13:34:53;17.70;;;3.72;;
17935;SDS011;9093;52.062;4.508;2023-02-04T13:37:33;19.33;;;4.93;;
17935;SDS011;9093;52.062;4.508;2023-02-04T13:40:14;19.58;;;4.65;;
17935;SDS011;9093;52.062;4.508;2023-02-04T13:42:57;10.80;;;3.50;;
17935;SDS011;9093;52.062;4.508;2023-02-04T13:45:37;19.25;;;4.60;;
17935;SDS011;9093;52.062;4.508;2023-02-04T13:48:18;15.63;;;4.82;;
17935;SDS011;9093;52.062;4.508;2023-02-04T13:50:59;19.73;;;4.82;;
17935;SDS011;9093;52.062;4.508;2023-02-04T13:53:39;19.88;;;3.53;;
17935;SDS011;9093;52.062;4.508;2023-02-04T13:56:19;20.80;;;4.35;;
17935;SDS011;9093;52.062;4.508;2023-02-04T13:59:00;15.60;;;4.10;;
17935;SDS011;9093;52.062;4.508;2023-02-04T14:01:40;13.90;;;3.08;;
17935;SDS011;9093;52.062;4.508;2023-02-04T14:04:20;14.02;;;2.83;;
17935;SDS011;9093;52.062;4.508;2023-02-04T14:07:01;10.20;;;2.40;;
17935;SDS011;9093;52.062;4.508;2023-02-04T14:09:41;15.20;;;2.47;;
17935;SDS011;9093;52.062;4.508;2023-02-04T14:12:21;19.83;;;3.38;;
17935;SDS011;9093;52.062;4.508;2023-02-04T14:15:02;14.80;;;3.03;;
17935;SDS011;9093;52.062;4.508;2023-02-04T14:17:42;12.73;;;2.67;;
17935;SDS011;9093;52.062;4.508;2023-02-04T14:20:22;14.32;;;2.95;;
17935;SDS011;9093;52.062;4.508;2023-02-04T14:23:04;14.35;;;3.80;;
17935;SDS011;9093;52.062;4.508;2023-02-04T14:25:45;18.05;;;3.53;;
17935;SDS011;9093;52.062;4.508;2023-02-04T14:28:25;12.95;;;3.03;;
17935;SDS011;9093;52.062;4.508;2023-02-04T14:31:05;20.65;;;4.85;;
17935;SDS011;9093;52.062;4.508;2023-02-04T14:33:46;11.15;;;3.40;;
17935;SDS011;9093;52.062;4.508;2023-02-04T14:36:26;17.45;;;3.60;;
17935;SDS011;9093;52.062;4.508;2023-02-04T14:39:06;10.18;;;3.70;;
17935;SDS011;9093;52.062;4.508;2023-02-04T14:41:47;18.10;;;4.28;;
17935;SDS011;9093;52.062;4.508;2023-02-04T14:44:27;8.90;;;3.33;;
17935;SDS011;9093;52.062;4.508;2023-02-04T14:47:07;19.48;;;4.13;;
17935;SDS011;9093;52.062;4.508;2023-02-04T14:49:47;16.23;;;4.13;;
17935;SDS011;9093;52.062;4.508;2023-02-04T14:52:28;15.57;;;4.10;;
17935;SDS011;9093;52.062;4.508;2023-02-04T14:55:09;14.00;;;3.70;;
17935;SDS011;9093;52.062;4.508;2023-02-04T14:57:50;7.85;;;3.53;;
17935;SDS011;9093;52.062;4.508;2023-02-04T15:00:31;10.45;;;3.53;;
17935;SDS011;9093;52.062;4.508;2023-02-04T15:03:11;13.27;;;3.03;;
17935;SDS011;9093;52.062;4.508;2023-02-04T15:05:51;10.85;;;4.78;;
17935;SDS011;9093;52.062;4.508;2023-02-04T15:08:32;15.88;;;3.90;;
17935;SDS011;9093;52.062;4.508;2023-02-04T15:11:12;8.43;;;3.88;;
17935;SDS011;9093;52.062;4.508;2023-02-04T15:13:53;14.95;;;4.25;;
17935;SDS011;9093;52.062;4.508;2023-02-04T15:16:33;15.82;;;4.75;;
17935;SDS011;9093;52.062;4.508;2023-02-04T15:19:14;15.50;;;6.03;;
17935;SDS011;9093;52.062;4.508;2023-02-04T15:21:55;15.00;;;4.75;;
17935;SDS011;9093;52.062;4.508;2023-02-04T15:24:35;9.95;;;5.15;;
17935;SDS011;9093;52.062;4.508;2023-02-04T15:27:16;14.65;;;6.18;;
17935;SDS011;9093;52.062;4.508;2023-02-04T15:29:56;10.57;;;5.65;;
17935;SDS011;9093;52.062;4.508;2023-02-04T15:32:36;26.00;;;7.00;;
17935;SDS011;9093;52.062;4.508;2023-02-04T15:35:17;11.77;;;4.93;;
17935;SDS011;9093;52.062;4.508;2023-02-04T15:37:58;23.15;;;6.03;;
17935;SDS011;9093;52.062;4.508;2023-02-04T15:40:38;15.75;;;5.03;;
17935;SDS011;9093;52.062;4.508;2023-02-04T15:43:19;17.25;;;4.95;;
17935;SDS011;9093;52.062;4.508;2023-02-04T15:45:59;20.83;;;4.72;;
17935;SDS011;9093;52.062;4.508;2023-02-04T15:48:39;21.10;;;5.28;;
17935;SDS011;9093;52.062;4.508;2023-02-04T15:51:20;11.75;;;5.25;;
17935;SDS011;9093;52.062;4.508;2023-02-04T15:54:00;12.80;;;5.30;;
17935;SDS011;9093;52.062;4.508;2023-02-04T15:56:40;14.35;;;4.53;;
17935;SDS011;9093;52.062;4.508;2023-02-04T15:59:20;11.43;;;5.50;;
17935;SDS011;9093;52.062;4.508;2023-02-04T16:02:01;11.27;;;5.47;;
17935;SDS011;9093;52.062;4.508;2023-02-04T16:04:41;15.48;;;5.78;;
17935;SDS011;9093;52.062;4.508;2023-02-04T16:07:24;12.20;;;5.28;;
17935;SDS011;9093;52.062;4.508;2023-02-04T16:10:04;16.02;;;6.30;;
17935;SDS011;9093;52.062;4.508;2023-02-04T16:12:45;13.55;;;5.50;;
17935;SDS011;9093;52.062;4.508;2023-02-04T16:15:26;16.27;;;5.82;;
17935;SDS011;9093;52.062;4.508;2023-02-04T16:18:06;16.13;;;6.35;;
17935;SDS011;9093;52.062;4.508;2023-02-04T16:20:47;19.17;;;6.75;;
17935;SDS011;9093;52.062;4.508;2023-02-04T16:23:27;21.35;;;6.63;;
17935;SDS011;9093;52.062;4.508;2023-02-04T16:26:07;14.25;;;5.70;;
17935;SDS011;9093;52.062;4.508;2023-02-04T16:28:48;16.25;;;6.55;;
17935;SDS011;9093;52.062;4.508;2023-02-04T16:31:28;20.83;;;7.25;;
17935;SDS011;9093;52.062;4.508;2023-02-04T16:34:08;20.00;;;6.25;;
17935;SDS011;9093;52.062;4.508;2023-02-04T16:36:48;17.15;;;8.02;;